KFLO/FLO METAR and TAF weather

Enter ICAO airport designator
Station Type Date Time Source
KFLO METAR 2021/09/27 06:53 UTC NOAA

KFLO 270653Z AUTO 00000KT 10SM CLR 17/13 A3011 RMK AO2 SLP194 T01670128


Station Type Date Time Source
KFLO Decoded METAR 2021/09/27 06:53 UTC NOAA

FLORENCE REGIONAL AIRPORT, SC, United States (KFLO) 34-11N 079-44W 44M
Sep 27, 2021 - 02:53 AM EDT / 2021.09.27 0653 UTC
Wind: Calm:0
Visibility: 10 mile(s):0
Sky conditions: clear
Temperature: 62.1 F (16.7 C)
Dew Point: 55.0 F (12.8 C)
Relative Humidity: 77%
Pressure (altimeter): 30.11 in. Hg (1019 hPa)
ob: KFLO 270653Z AUTO 00000KT 10SM CLR 17/13 A3011 RMK AO2 SLP194 T01670128
cycle: 7

Station Type Date Time Source
KFLO TAF 2021/09/27 06:22 UTC NOAA

TAF KFLO 270520Z 2706/2806 00000KT P6SM SKC
FM271300 23004KT P6SM SCT250
FM272100 20006KT P6SM SCT250

Example: see airport list